Tiempo atmosférico en la estación meteorológica de Cenicero, La Rioja (429 m.)



Fecha
DESCASC
Temp. máxima en grados centígrados (hora)
DESCASC
Temp. mínima en grados centígrados (hora)
DESCASC
Temp. media en grados centígrados
DESCASC
Racha de viento máxima en m/sg (hora)
DESCASC
Velocidad máxima media en intervalos de 10 minutos(hora)
DESCASC
Precipitaciones diarias en mm
DESCASC
Precipitaciones de 00:00 a 06:00 en mm
DESCASC
Precipitaciones de 06:00 a 12:00 en mm
DESCASC
Precipitaciones de 12:00 a 18:00 en mm
DESCASC
Precipitaciones de 18:00 a 24:00 en mm
DESCASC
24-05-2020 25.7 (17:30) 9.8 (04:20) 17.8 6.39 (00:10) 3.33 (22:10) 0 0 0 0 0
23-05-2020 19.7 (15:10) 12.7 (23:59) 16.2 8.89 (01:10) 5.28 (02:00) 0 0 0 0 0
22-05-2020 31.5 (17:10) 13.8 (07:00) 22.7 8.89 (23:40) 4.72 (23:30) 0 0 0 0 0
21-05-2020 30.9 (16:40) 13.3 (00:00) 22.1 6.39 (06:30) 3.89 (06:30) 0 0 0 0 0
20-05-2020 30.1 (17:10) 10.5 (00:00) 20.3 6.67 (15:00) 3.89 (17:10) 0 0 0 0 0
19-05-2020 26.8 (16:50) 10.5 (00:00) 18.6 7.22 (17:40) 3.89 (16:20) 0 0 0 0 0
18-05-2020 24.6 (15:50) 7.4 (00:00) 16 8.89 (15:30) 4.72 (15:30) 0 0 0 0 0
17-05-2020 21.8 (16:50) 8 (00:00) 14.9 7.5 (16:40) 4.44 (17:40) 0 0 0 0 0
16-05-2020 15.2 (19:00) 9.5 (00:00) 12.3 7.78 (19:40) 3.89 (19:40) 0.8 0 0.8 0 0
15-05-2020 14.3 (14:00) 10.4 (00:00) 12.3 8.33 (15:20) 4.44 (15:30) 0.2 0 0 0.2 0
14-05-2020 16.7 (16:50) 12.2 (00:00) 14.5 6.67 (18:40) 3.61 (18:30) 0 0 0 0 0
13-05-2020 19.6 (16:50) 10.7 (00:00) 15.2 5.83 (22:00) 3.33 (22:10) 11.2 7.6 1 0 2.6
12-05-2020 18.6 (16:00) 11.5 (00:00) 15.1 6.39 (19:40) 4.17 (19:40) 20.6 0 0 0 20.6
11-05-2020 21.8 (15:10) 11.4 (00:00) 16.6 12.22 (15:10) 6.94 (12:10) 0 0 0 0 0
10-05-2020 19 (14:30) 12.3 (00:00) 15.7 11.39 (15:20) 6.67 (15:30) 5.6 2 0.4 1.8 1.4
09-05-2020 27.5 (18:00) 13.3 (00:00) 20.4 12.78 (09:10) 6.67 (04:10) 0.4 0.4 0 0 0
08-05-2020 26.5 (16:10) 15.1 (00:00) 20.8 12.22 (02:50) 6.67 (04:10) 3.2 0 0 0 3.2
07-05-2020 26.4 (16:40) 12.3 (00:00) 19.3 12.5 (17:50) 7.22 (17:40) 0 0 0 0 0
06-05-2020 27.6 (16:40) 9.8 (00:00) 18.7 5.28 (20:30) 2.5 (11:20) 0 0 0 0 0
05-05-2020 25.6 (17:50) 14.8 (00:00) 20.2 8.61 (19:50) 4.72 (19:50) 0 0 0 0 0
04-05-2020 30 (19:00) 14.4 (00:00) 22.2 13.61 (17:20) 7.5 (17:40) 1 0 0 0 1
03-05-2020 26.7 (17:10) 10.8 (00:00) 18.8 7.78 (16:10) 3.89 (17:50) 0 0 0 0 0
02-05-2020 23.7 (16:20) 14.2 (00:00) 19 14.44 (16:30) 8.61 (16:40) 0 0 0 0 0
01-05-2020 25 (17:20) 13.9 (00:00) 19.4 18.06 (15:10) 10 (13:30) 1.6 0 1.6 0 0
30-04-2020 20.6 (15:10) 11.7 (00:00) 16.2 16.94 (10:50) 8.89 (15:20) 0 0 0 0 0
29-04-2020 22.1 (16:10) 8.4 (00:00) 15.3 12.5 (20:40) 7.22 (20:40) 0 0 0 0 0
28-04-2020 19.1 (16:40) 7.9 (00:00) 13.5 12.78 (18:00) 7.22 (13:50) 0 0 0 0 0

Gráficas

Temp. máximas Temp. mínimas Temp. medias Precipitaciones Rachas de viento máximas Velocidades máximas media en intervalos de 10 minutos

Datos horarios

Fecha y hora oficial Temperatura (ºC) Velocidad del viento (km/h) Dirección del viento Racha (km/h) Dirección de racha Precipitación (mm) Presión (hPa) Tendencia (hPa) Humedad (%)
2020-05-27 23:00:00 23.4 7 Este 19 Este 0 -- -- 48
2020-05-27 22:00:00 25.4 12 Este 23 Este 0 -- -- 41
2020-05-27 21:00:00 26.6 18 Este 31 Este 0 -- -- 39
2020-05-27 20:00:00 27.9 16 Este 28 Este 0 -- -- 38
2020-05-27 19:00:00 28.9 14 Este 26 Este 0 -- -- 37
2020-05-27 18:00:00 29.4 10 Este 24 Sudeste 0 -- -- 37
2020-05-27 17:00:00 29.3 9 Este 23 Este 0 -- -- 38
2020-05-27 16:00:00 28.8 10 Este 22 Este 0 -- -- 40
2020-05-27 15:00:00 27.5 11 Este 24 Este 0 -- -- 42
2020-05-27 14:00:00 26.3 7 Este 26 Nordeste 0 -- -- 44
2020-05-27 13:00:00 24.4 6 Este 15 Este 0 -- -- 48
2020-05-27 12:00:00 23 4 Noroeste 12 Noroeste 0 -- -- 52
2020-05-27 11:00:00 21 5 Noroeste 12 Oeste 0 -- -- 58
2020-05-27 10:00:00 18 6 Noroeste 12 Noroeste 0 -- -- 67
2020-05-27 09:00:00 15.5 4 Noroeste 11 Oeste 0 -- -- 76
2020-05-27 08:00:00 13.6 6 Noroeste 10 Noroeste 0 -- -- 81
2020-05-27 07:00:00 12.4 5 Oeste 10 Noroeste 0 -- -- 86
2020-05-27 06:00:00 13.2 3 Noroeste 8 Oeste 0 -- -- 85
2020-05-27 05:00:00 14 2 Noroeste 8 Oeste 0 -- -- 81
2020-05-27 04:00:00 15.2 5 Sudoeste 10 Sudoeste 0 -- -- 76
2020-05-27 03:00:00 15.9 6 Sudoeste 14 Sudoeste 0 -- -- 72
2020-05-27 02:00:00 16.5 6 Sudoeste 17 Sudoeste 0 -- -- 70
2020-05-27 01:00:00 17.4 9 Sudoeste 16 Sudoeste 0 -- -- 68
2020-05-27 00:00:00 18.5 7 Sudoeste 20 Sudoeste 0 -- -- 67
2020-05-26 23:00:00 20.1 6 Sudoeste 14 Sudoeste 0 -- -- 59
2020-05-26 22:00:00 21.3 6 Noroeste 22 Norte 0 -- -- 55
2020-05-26 21:00:00 22.2 12 Norte 31 Norte 0 -- -- 55
2020-05-26 20:00:00 23.7 15 Norte 28 Norte 0 -- -- 54
2020-05-26 19:00:00 25.9 12 Norte 25 Oeste 0 -- -- 49
2020-05-26 18:00:00 27.5 6 Nordeste 15 Oeste 0 -- -- 43
2020-05-26 17:00:00 27 5 Noroeste 16 Este 0 -- -- 42
2020-05-26 16:00:00 25.7 9 Este 19 Este 0 -- -- 44
2020-05-26 15:00:00 25.8 5 Norte 15 Noroeste 0 -- -- 43
2020-05-26 14:00:00 24.6 5 Noroeste 12 Oeste 0 -- -- 47
2020-05-26 13:00:00 23.2 3 Noroeste 12 Oeste 0 -- -- 47
2020-05-26 12:00:00 22.3 5 Oeste 16 Oeste 0 -- -- 49
2020-05-26 11:00:00 20.3 8 Oeste 17 Oeste 0 -- -- 53
2020-05-26 10:00:00 18.3 9 Oeste 19 Sudoeste 0 -- -- 57
2020-05-26 09:00:00 15.3 4 Noroeste 8 Oeste 0 -- -- 69
2020-05-26 08:00:00 13.9 5 Oeste 14 Sudoeste 0 -- -- 72
2020-05-26 07:00:00 14.2 5 Oeste 12 Oeste 0 -- -- 68
2020-05-26 06:00:00 14.2 8 Sudoeste 15 Oeste 0 -- -- 65
2020-05-26 05:00:00 14.3 7 Sudoeste 17 Oeste 0 -- -- 66
2020-05-26 04:00:00 14.4 7 Sudoeste 15 Oeste 0 -- -- 67
2020-05-26 03:00:00 15.1 3 Sudoeste 14 Sudoeste 0 -- -- 67
2020-05-26 02:00:00 16.1 8 Sudoeste 17 Sur 0 -- -- 67
2020-05-26 01:00:00 17.1 6 Sudoeste 21 Sudoeste 0 -- -- 65
2020-05-26 00:00:00 17.4 9 Sudoeste 22 Sudoeste 0 -- -- 66
2020-05-25 23:00:00 17.7 10 Sudoeste 20 Sudoeste 0 -- -- 66
2020-05-25 22:00:00 18.2 6 Sudoeste 24 Sudoeste 0 -- -- 70
2020-05-25 21:00:00 19.6 10 Sudoeste 16 Oeste 0 -- -- 62
2020-05-25 20:00:00 20.1 8 Noroeste 19 Norte 0 -- -- 61
2020-05-25 19:00:00 21.2 8 Norte 19 Norte 0 -- -- 61
2020-05-25 18:00:00 22 5 Nordeste 12 Este 0 -- -- 60
2020-05-25 17:00:00 22.5 8 Nordeste 22 Este 0 -- -- 59
2020-05-25 16:00:00 23.3 9 Este 28 Este 0 -- -- 56
2020-05-25 15:00:00 23.8 12 Este 21 Este 0 -- -- 54
2020-05-25 14:00:00 23.6 8 Este 18 Sudeste 0 -- -- 50
2020-05-25 13:00:00 22.4 5 Nordeste 12 Sudeste 0 -- -- 51
2020-05-25 12:00:00 21.8 7 Oeste 13 Noroeste 0 -- -- 53
2020-05-25 11:00:00 19.6 7 Oeste 16 Oeste 0 -- -- 59
2020-05-25 10:00:00 18.2 10 Oeste 18 Oeste 0 -- -- 62
2020-05-25 09:00:00 16.4 10 Oeste 16 Oeste 0 -- -- 68
2020-05-25 08:00:00 13.9 6 Oeste 12 Oeste 0 -- -- 80
2020-05-25 07:00:00 12.8 4 Oeste 9 Oeste 0 -- -- 85
2020-05-25 06:00:00 13.2 5 Oeste 14 Oeste 0 -- -- 81
2020-05-25 05:00:00 13.6 6 Oeste 13 Sudoeste 0 -- -- 82
2020-05-25 04:00:00 13.9 8 Sudoeste 15 Sudoeste 0 -- -- 81
2020-05-25 03:00:00 14.4 8 Sudoeste 15 Oeste 0 -- -- 80
2020-05-25 02:00:00 14.7 7 Sudoeste 17 Sudoeste 0 -- -- 79
2020-05-25 01:00:00 15 8 Sudoeste 19 Sudoeste 0 -- -- 78
2020-05-25 00:00:00 15.9 8 Sudoeste 21 Sudoeste 0 -- -- 75
2020-05-24 23:00:00 17.2 11 Sudoeste 22 Sudoeste 0 -- -- 69
2020-05-24 22:00:00 19.2 9 Sudoeste 20 Sudoeste 0 -- -- 62
2020-05-24 21:00:00 21.2 8 Oeste 15 Noroeste 0 -- -- 57
2020-05-24 20:00:00 23.4 9 Noroeste 15 Oeste 0 -- -- 52
2020-05-24 19:00:00 24.9 9 Noroeste 14 Oeste 0 -- -- 46
2020-05-24 18:00:00 25.4 7 Oeste 12 Oeste 0 -- -- 44
2020-05-24 17:00:00 25.3 7 Oeste 12 Oeste 0 -- -- 41
2020-05-24 16:00:00 24.1 3 Oeste 13 Oeste 0 -- -- 41
2020-05-24 15:00:00 22.6 3 Sudoeste 16 Oeste 0 -- -- 42
2020-05-24 14:00:00 21 6 Oeste 14 Oeste 0 -- -- 44
2020-05-24 13:00:00 19.8 6 Oeste 14 Oeste 0 -- -- 48
2020-05-24 12:00:00 18.1 6 Sudoeste 16 Oeste 0 -- -- 51
2020-05-24 11:00:00 16.6 8 Oeste 17 Sudoeste 0 -- -- 58
2020-05-24 10:00:00 14.9 8 Sudoeste 17 Oeste 0 -- -- 65
2020-05-24 09:00:00 13 8 Oeste 19 Sudoeste 0 -- -- 73
2020-05-24 08:00:00 11 11 Sudoeste 22 Sudoeste 0 -- -- 79
2020-05-24 07:00:00 10 6 Oeste 13 Oeste 0 -- -- 82
2020-05-24 06:00:00 10 6 Oeste 13 Sudoeste 0 -- -- 81
2020-05-24 05:00:00 9.8 6 Sudoeste 13 Sudoeste 0 -- -- 82
2020-05-24 04:00:00 9.9 6 Sudoeste 15 Oeste 0 -- -- 80
2020-05-24 03:00:00 10.2 7 Sudoeste 17 Oeste 0 -- -- 79
2020-05-24 02:00:00 10.7 10 Sudoeste 21 Sudoeste 0 -- -- 77
2020-05-24 01:00:00 11.5 10 Sudoeste 23 Sudoeste 0 -- -- 74
2020-05-24 00:00:00 12.7 10 Oeste 20 Oeste 0 -- -- 72
2020-05-23 23:00:00 14.1 8 Sudoeste 16 Oeste 0 -- -- 70
2020-05-23 22:00:00 15 7 Sudoeste 15 Sudoeste 0 -- -- 70
2020-05-23 21:00:00 15.8 7 Noroeste 20 Noroeste 0 -- -- 67
2020-05-23 20:00:00 17.9 8 Noroeste 20 Noroeste 0 -- -- 60
2020-05-23 19:00:00 18.3 8 Oeste 14 Sudoeste 0 -- -- 61
2020-05-23 18:00:00 17.1 4 Noroeste 20 Norte 0 -- -- 65
2020-05-23 17:00:00 16.2 13 Norte 28 Norte 0 -- -- 70
2020-05-23 16:00:00 19 9 Noroeste 18 Noroeste 0 -- -- 64
2020-05-23 15:00:00 19.5 5 Oeste 12 Noroeste 0 -- -- 61
2020-05-23 14:00:00 17.8 9 Norte 17 Norte 0 -- -- 67
2020-05-23 13:00:00 16.9 13 Norte 27 Norte 0 -- -- 71
2020-05-23 12:00:00 17.2 8 Norte 21 Noroeste 0 -- -- 73
2020-05-23 11:00:00 17.3 13 Noroeste 23 Noroeste 0 -- -- 74
2020-05-23 10:00:00 17.2 10 Oeste 21 Oeste 0 -- -- 76
2020-05-23 09:00:00 16.9 9 Oeste 20 Oeste 0 -- -- 76
2020-05-23 08:00:00 16.8 11 Oeste 19 Oeste 0 -- -- 78
2020-05-23 07:00:00 16.6 8 Oeste 20 Oeste 0 -- -- 79
2020-05-23 06:00:00 16.5 13 Oeste 24 Oeste 0 -- -- 79
2020-05-23 05:00:00 16.6 14 Oeste 27 Oeste 0 -- -- 79
2020-05-23 04:00:00 16.8 15 Oeste 28 Oeste 0 -- -- 80
2020-05-23 03:00:00 16.9 15 Oeste 32 Oeste 0 -- -- 81
2020-05-23 02:00:00 17 19 Oeste 32 Oeste 0 -- -- 80
2020-05-23 01:00:00 17.9 14 Sudoeste 30 Sudoeste 0 -- -- 77
2020-05-23 00:00:00 19.2 16 Sudoeste 32 Sudoeste 0 -- -- 74
2020-05-22 23:00:00 21 15 Sudoeste 28 Sudoeste 0 -- -- 68
2020-05-22 22:00:00 24.3 12 Sudoeste 27 Sudoeste 0 -- -- 57
2020-05-22 21:00:00 29.8 4 Sudeste 14 Nordeste 0 -- -- 35
2020-05-22 20:00:00 30.8 5 Este 16 Este 0 -- -- 35
2020-05-22 19:00:00 31.2 8 Este 18 Este 0 -- -- 34
2020-05-22 18:00:00 31.5 9 Este 19 Este 0 -- -- 33
2020-05-22 17:00:00 31.2 6 Nordeste 15 Este 0 -- -- 33
2020-05-22 16:00:00 30.9 4 Nordeste 13 Este 0 -- -- 33
2020-05-22 15:00:00 29.6 6 Norte 13 Nordeste 0 -- -- 37
2020-05-22 14:00:00 28.4 6 Este 15 Nordeste 0 -- -- 38
2020-05-22 13:00:00 27.6 8 Este 15 Sudeste 0 -- -- 41
2020-05-22 12:00:00 26.1 3 Oeste 14 Oeste 0 -- -- 47
2020-05-22 11:00:00 23.5 7 Oeste 14 Oeste 0 -- -- 54
2020-05-22 10:00:00 19.6 4 Noroeste 8 Noroeste 0 -- -- 65
2020-05-22 09:00:00 17.9 3 Noroeste 6 Noroeste 0 -- -- 70
2020-05-22 08:00:00 15.8 2 Noroeste 6 Oeste 0 -- -- 77
2020-05-22 07:00:00 13.8 4 Oeste 8 Oeste 0 -- -- 82
2020-05-22 06:00:00 14.3 5 Oeste 9 Oeste 0 -- -- 80
2020-05-22 05:00:00 14.8 3 Oeste 5 Noroeste 0 -- -- 78
2020-05-22 04:00:00 15.6 3 Oeste 6 Oeste 0 -- -- 76
2020-05-22 03:00:00 16.6 0 Calma 4 Sudoeste 0 -- -- 72
2020-05-22 02:00:00 17.7 3 Oeste 6 Sudoeste 0 -- -- 69
2020-05-22 01:00:00 19.2 2 Oeste 6 Oeste 0 -- -- 61
2020-05-22 00:00:00 20.1 0 Calma 4 Sudoeste 0 -- -- 59
2020-05-21 23:00:00 21.9 0 Calma 4 Noroeste 0 -- -- 53
2020-05-21 22:00:00 24.6 3 Sudoeste 8 Sudoeste 0 -- -- 43
2020-05-21 21:00:00 28.4 2 Oeste 4 Sudoeste 0 -- -- 34
2020-05-21 20:00:00 29.9 2 Noroeste 10 Oeste 0 -- -- 23
2020-05-21 19:00:00 30.4 5 Oeste 11 Noroeste 0 -- -- 21
2020-05-21 18:00:00 30.4 5 Noroeste 10 Norte 0 -- -- 25
2020-05-21 17:00:00 30.3 4 Norte 12 Sudoeste 0 -- -- 29
2020-05-21 16:00:00 29.8 5 Sudoeste 14 Noroeste 0 -- -- 33
2020-05-21 15:00:00 28.2 5 Noroeste 11 Noroeste 0 -- -- 37
2020-05-21 14:00:00 26.7 5 Noroeste 13 Oeste 0 -- -- 38
2020-05-21 13:00:00 25.1 4 Noroeste 13 Oeste 0 -- -- 41
2020-05-21 12:00:00 22.5 8 Oeste 17 Oeste 0 -- -- 48
2020-05-21 11:00:00 19 6 Oeste 13 Oeste 0 -- -- 58
2020-05-21 10:00:00 16.4 7 Noroeste 13 Noroeste 0 -- -- 66
2020-05-21 09:00:00 15.5 5 Noroeste 14 Oeste 0 -- -- 66
2020-05-21 08:00:00 13.8 6 Noroeste 19 Sudoeste 0 -- -- 65
2020-05-21 07:00:00 13.5 10 Sudoeste 23 Sudoeste 0 -- -- 68
2020-05-21 06:00:00 13.5 8 Sudoeste 15 Oeste 0 -- -- 68
2020-05-21 05:00:00 14.5 10 Sudoeste 17 Sudoeste 0 -- -- 65
2020-05-21 04:00:00 14.6 10 Sudoeste 19 Sudoeste 0 -- -- 62
2020-05-21 03:00:00 15.4 7 Oeste 15 Sudoeste 0 -- -- 58
2020-05-21 02:00:00 16.6 3 Sudoeste 12 Sudoeste 0 -- -- 56
2020-05-21 01:00:00 17.8 7 Sur 17 Sudoeste 0 -- -- 53
2020-05-21 00:00:00 19.1 10 Sudoeste 18 Sur 0 -- -- 45
2020-05-20 23:00:00 20.4 9 Sudoeste 15 Sudoeste 0 -- -- 34
2020-05-20 22:00:00 22.6 3 Oeste 8 Sudoeste 0 -- -- 35
2020-05-20 21:00:00 25.1 6 Noroeste 19 Noroeste 0 -- -- 33
2020-05-20 20:00:00 26.8 13 Noroeste 23 Noroeste 0 -- -- 30
2020-05-20 19:00:00 28.1 11 Noroeste 23 Noroeste 0 -- -- 26
2020-05-20 18:00:00 28.9 10 Noroeste 23 Noroeste 0 -- -- 28
2020-05-20 17:00:00 29.8 12 Oeste 21 Oeste 0 -- -- 27
2020-05-20 16:00:00 29.1 9 Noroeste 21 Oeste 0 -- -- 29
2020-05-20 15:00:00 28.8 12 Oeste 24 Oeste 0 -- -- 30
2020-05-20 14:00:00 27.4 13 Oeste 22 Oeste 0 -- -- 34
2020-05-20 13:00:00 25.6 12 Oeste 21 Oeste 0 -- -- 39
2020-05-20 12:00:00 23.3 12 Oeste 22 Oeste 0 -- -- 47
2020-05-20 11:00:00 21.3 12 Oeste 19 Oeste 0 -- -- 51
2020-05-20 10:00:00 17.9 9 Noroeste 16 Oeste 0 -- -- 62
2020-05-20 09:00:00 14.1 9 Oeste 15 Oeste 0 -- -- 73
2020-05-20 08:00:00 10.5 8 Noroeste 17 Oeste 0 -- -- 85
2020-05-20 07:00:00 10.5 8 Noroeste 13 Noroeste 0 -- -- 85
2020-05-20 06:00:00 10.8 6 Noroeste 10 Noroeste 0 -- -- 85
2020-05-20 05:00:00 11.6 3 Noroeste 9 Sudoeste 0 -- -- 82
2020-05-20 04:00:00 12.8 5 Sudoeste 15 Sudoeste 0 -- -- 75
2020-05-20 03:00:00 13.7 7 Sudoeste 13 Sudoeste 0 -- -- 72
2020-05-20 02:00:00 14.8 4 Sudoeste 12 Sudoeste 0 -- -- 66
2020-05-20 01:00:00 15.6 10 Sudoeste 16 Sudoeste 0 -- -- 63
2020-05-20 00:00:00 16.7 6 Sudoeste 19 Sudoeste 0 -- -- 61
2020-05-19 23:00:00 18.1 4 Sur 16 Sudoeste 0 -- -- 54
2020-05-19 22:00:00 20.4 6 Sudoeste 13 Sudoeste 0 -- -- 48
2020-05-19 21:00:00 23.2 7 Oeste 18 Norte 0 -- -- 43
2020-05-19 20:00:00 23.8 10 Norte 22 Noroeste 0 -- -- 40
2020-05-19 19:00:00 25 12 Noroeste 23 Noroeste 0 -- -- 39
2020-05-19 18:00:00 26.2 7 Noroeste 26 Oeste 0 -- -- 38
2020-05-19 17:00:00 26.7 12 Oeste 23 Oeste 0 -- -- 40
2020-05-19 16:00:00 25.8 14 Noroeste 25 Oeste 0 -- -- 41
2020-05-19 15:00:00 25.5 13 Oeste 22 Noroeste 0 -- -- 40
2020-05-19 14:00:00 23.9 10 Oeste 21 Oeste 0 -- -- 43
2020-05-19 13:00:00 22.2 12 Oeste 25 Oeste 0 -- -- 46
2020-05-19 12:00:00 20.4 11 Oeste 19 Oeste 0 -- -- 50
2020-05-19 11:00:00 18.6 12 Oeste 23 Sudoeste 0 -- -- 52
2020-05-19 10:00:00 16.7 11 Oeste 22 Sudoeste 0 -- -- 58
2020-05-19 09:00:00 14.9 9 Oeste 18 Oeste 0 -- -- 62
2020-05-19 08:00:00 11.8 6 Oeste 18 Sudoeste 0 -- -- 76
2020-05-19 07:00:00 10.5 12 Sudoeste 20 Sudoeste 0 -- -- 79
2020-05-19 06:00:00 11 13 Sudoeste 20 Sudoeste 0 -- -- 78
2020-05-19 05:00:00 11.6 9 Sudoeste 20 Sudoeste 0 -- -- 76
2020-05-19 04:00:00 11.9 10 Sudoeste 18 Sudoeste 0 -- -- 75
2020-05-19 03:00:00 12.5 12 Sudoeste 20 Sudoeste 0 -- -- 75
2020-05-19 02:00:00 13.2 11 Sudoeste 18 Sudoeste 0 -- -- 73
2020-05-19 01:00:00 13.6 9 Sudoeste 19 Sudoeste 0 -- -- 72
2020-05-19 00:00:00 14.7 6 Sudoeste 15 Sudoeste 0 -- -- 65
2020-05-18 23:00:00 16 5 Oeste 14 Noroeste 0 -- -- 59
2020-05-18 22:00:00 17.3 9 Noroeste 22 Noroeste 0 -- -- 47
2020-05-18 21:00:00 19.5 9 Noroeste 26 Noroeste 0 -- -- 41
2020-05-18 20:00:00 21.4 13 Noroeste 26 Noroeste 0 -- -- 31
2020-05-18 19:00:00 22.5 12 Noroeste 26 Noroeste 0 -- -- 33
2020-05-18 18:00:00 23.2 15 Noroeste 26 Oeste 0 -- -- 34
2020-05-18 17:00:00 23.4 14 Noroeste 26 Norte 0 -- -- 39
2020-05-18 16:00:00 24 12 Noroeste 32 Oeste 0 -- -- 39
2020-05-18 15:00:00 24 13 Oeste 26 Oeste 0 -- -- 38
2020-05-18 14:00:00 22.8 11 Oeste 22 Oeste 0 -- -- 40
2020-05-18 13:00:00 20.9 11 Oeste 21 Oeste 0 -- -- 44
2020-05-18 12:00:00 18.7 11 Oeste 20 Oeste 0 -- -- 53
2020-05-18 11:00:00 16.8 12 Oeste 20 Oeste 0 -- -- 55
2020-05-18 10:00:00 13.7 8 Noroeste 14 Noroeste 0 -- -- 68
2020-05-18 09:00:00 11.2 6 Noroeste 13 Noroeste 0 -- -- 75
2020-05-18 08:00:00 8.9 6 Noroeste 13 Noroeste 0 -- -- 82
2020-05-18 07:00:00 7.4 8 Oeste 13 Noroeste 0 -- -- 88
2020-05-18 06:00:00 8.1 5 Noroeste 17 Oeste 0 -- -- 86
2020-05-18 05:00:00 9.4 6 Oeste 18 Sudoeste 0 -- -- 81
2020-05-18 04:00:00 9.8 10 Sudoeste 19 Sur 0 -- -- 79
2020-05-18 03:00:00 10.4 10 Sudoeste 18 Sudoeste 0 -- -- 78
2020-05-18 02:00:00 11.2 8 Sudoeste 17 Sudoeste 0 -- -- 76
2020-05-18 01:00:00 11.7 4 Sudoeste 11 Sudoeste 0 -- -- 75
2020-05-18 00:00:00 12.5 5 Sudoeste 15 Sudoeste 0 -- -- 72
2020-05-17 23:00:00 13.9 6 Sudoeste 13 Sudoeste 0 -- -- 62
2020-05-17 22:00:00 15.6 2 Oeste 11 Sudoeste 0 -- -- 55
2020-05-17 21:00:00 17.9 4 Oeste 26 Noroeste 0 -- -- 48
2020-05-17 20:00:00 19.2 6 Noroeste 23 Oeste 0 -- -- 45
2020-05-17 19:00:00 20.4 13 Noroeste 22 Noroeste 0 -- -- 44
2020-05-17 18:00:00 21.3 15 Oeste 27 Oeste 0 -- -- 43
2020-05-17 17:00:00 21.5 12 Noroeste 27 Oeste 0 -- -- 45
2020-05-17 16:00:00 21.1 9 Oeste 24 Oeste 0 -- -- 45
2020-05-17 15:00:00 20.2 11 Sudoeste 20 Sudoeste 0 -- -- 44
2020-05-17 14:00:00 18.6 5 Oeste 18 Oeste 0 -- -- 49
2020-05-17 13:00:00 17.9 5 Oeste 18 Oeste 0 -- -- 49
2020-05-17 12:00:00 16.3 6 Oeste 18 Oeste 0 -- -- 55
2020-05-17 11:00:00 14 9 Noroeste 19 Oeste 0 -- -- 62
2020-05-17 10:00:00 12.8 13 Oeste 22 Oeste 0 -- -- 66
2020-05-17 09:00:00 11.3 9 Oeste 16 Oeste 0 -- -- 72
2020-05-17 08:00:00 8.2 7 Noroeste 16 Oeste 0 -- -- 83
2020-05-17 07:00:00 8 5 Sudoeste 24 Sudoeste 0 -- -- 82
2020-05-17 06:00:00 8.3 8 Sudoeste 22 Sudoeste 0 -- -- 82
2020-05-17 05:00:00 8.8 7 Sudoeste 22 Sudoeste 0 -- -- 81
2020-05-17 04:00:00 9.1 9 Sudoeste 21 Sudoeste 0 -- -- 80
2020-05-17 03:00:00 9.7 11 Sudoeste 20 Oeste 0 -- -- 79
2020-05-17 02:00:00 10.6 10 Sudoeste 21 Oeste 0 -- -- 79
2020-05-17 01:00:00 11 9 Sudoeste 22 Sudoeste 0 -- -- 78
2020-05-17 00:00:00 11.2 5 Sudoeste 17 Sudoeste 0 -- -- 75
2020-05-16 23:00:00 11.9 6 Sudoeste 18 Noroeste 0 -- -- 73
2020-05-16 22:00:00 13 8 Noroeste 26 Noroeste 0 -- -- 68
2020-05-16 21:00:00 13.9 10 Noroeste 23 Noroeste 0 -- -- 67
2020-05-16 20:00:00 15 13 Noroeste 28 Noroeste 0 -- -- 62
2020-05-16 19:00:00 15.2 13 Noroeste 20 Noroeste 0 -- -- 62
2020-05-16 18:00:00 15 9 Noroeste 21 Noroeste 0 -- -- 64
2020-05-16 17:00:00 14.7 8 Oeste 15 Oeste 0 -- -- 70
2020-05-16 16:00:00 14.1 8 Noroeste 20 Sudoeste 0 -- -- 73
2020-05-16 15:00:00 14 8 Sudoeste 22 Sudoeste 0 -- -- 78
2020-05-16 14:00:00 13.4 13 Sudoeste 22 Sudoeste 0 -- -- 78
2020-05-16 13:00:00 12 9 Sudoeste 23 Sudoeste 0 -- -- 82
2020-05-16 12:00:00 12 13 Sudoeste 25 Sudoeste 0 -- -- 83
2020-05-16 11:00:00 10.7 8 Sudoeste 20 Sudoeste 0 -- -- 89
2020-05-16 10:00:00 10.1 9 Sudoeste 19 Sudoeste 0 -- -- 90
2020-05-16 09:00:00 9.5 10 Sudoeste 22 Sudoeste 0.4 -- -- 92
2020-05-16 08:00:00 9.5 11 Sudoeste 20 Sudoeste 0.2 -- -- 90
2020-05-16 07:00:00 9.9 9 Sudoeste 18 Sudoeste 0.2 -- -- 87
2020-05-16 06:00:00 10.3 10 Sudoeste 18 Sudoeste 0 -- -- 83
2020-05-16 05:00:00 10.2 8 Sudoeste 15 Sudoeste 0 -- -- 82
2020-05-16 04:00:00 10.2 8 Oeste 16 Oeste 0 -- -- 82
2020-05-16 03:00:00 10.1 8 Sudoeste 15 Oeste 0 -- -- 83
2020-05-16 02:00:00 10.1 7 Sudoeste 17 Oeste 0 -- -- 84
2020-05-16 01:00:00 10.2 9 Oeste 16 Oeste 0 -- -- 82
2020-05-16 00:00:00 10.4 6 Oeste 13 Noroeste 0 -- -- 79
2020-05-15 23:00:00 10.8 7 Oeste 16 Noroeste 0 -- -- 76
2020-05-15 22:00:00 11.2 9 Noroeste 23 Noroeste 0 -- -- 72
2020-05-15 21:00:00 11.5 10 Noroeste 24 Noroeste 0 -- -- 74
2020-05-15 20:00:00 11.6 7 Noroeste 17 Noroeste 0 -- -- 78
2020-05-15 19:00:00 11.9 8 Noroeste 22 Noroeste 0 -- -- 81
2020-05-15 18:00:00 11.9 9 Noroeste 25 Norte 0.2 -- -- 84
2020-05-15 17:00:00 12.2 13 Norte 30 Norte 0 -- -- 79
2020-05-15 16:00:00 13.1 14 Norte 30 Noroeste 0 -- -- 73
2020-05-15 15:00:00 13.7 14 Norte 27 Noroeste 0 -- -- 73
2020-05-15 14:00:00 14.3 8 Norte 22 Norte 0 -- -- 71
2020-05-15 13:00:00 13.6 9 Norte 29 Norte 0 -- -- 73
2020-05-15 12:00:00 12.9 7 Norte 16 Norte 0 -- -- 77
2020-05-15 11:00:00 12.7 6 Oeste 13 Oeste 0 -- -- 81
2020-05-15 10:00:00 12.2 7 Oeste 13 Oeste 0 -- -- 82
2020-05-15 09:00:00 11.6 8 Oeste 16 Oeste 0 -- -- 83
2020-05-15 08:00:00 11.4 10 Oeste 15 Oeste 0 -- -- 83
2020-05-15 07:00:00 11 8 Oeste 17 Sudoeste 0 -- -- 84
2020-05-15 06:00:00 11.2 10 Oeste 18 Oeste 0 -- -- 84
2020-05-15 05:00:00 11.3 10 Oeste 20 Oeste 0 -- -- 84
2020-05-15 04:00:00 11.5 11 Oeste 18 Oeste 0 -- -- 82
2020-05-15 03:00:00 11.6 10 Oeste 15 Oeste 0 -- -- 82
2020-05-15 02:00:00 12 8 Oeste 21 Oeste 0 -- -- 80
2020-05-15 01:00:00 12.1 10 Oeste 19 Sudoeste 0 -- -- 79
2020-05-15 00:00:00 12.2 11 Oeste 19 Oeste 0 -- -- 78
2020-05-14 23:00:00 12.4 3 Noroeste 13 Oeste 0 -- -- 78
2020-05-14 22:00:00 12.8 6 Oeste 12 Oeste 0 -- -- 76
2020-05-14 21:00:00 13.3 3 Oeste 22 Norte 0 -- -- 77
2020-05-14 20:00:00 13.7 9 Norte 23 Norte 0 -- -- 75
2020-05-14 19:00:00 14.3 9 Norte 24 Norte 0 -- -- 72
2020-05-14 18:00:00 15.7 10 Noroeste 19 Noroeste 0 -- -- 68
2020-05-14 17:00:00 16.6 9 Noroeste 21 Noroeste 0 -- -- 64
2020-05-14 16:00:00 16.3 8 Noroeste 17 Noroeste 0 -- -- 70
2020-05-14 15:00:00 14.7 4 Norte 13 Norte 0 -- -- 76
2020-05-14 14:00:00 15.1 4 Oeste 7 Oeste 0 -- -- 74
2020-05-14 13:00:00 15.1 2 Sudoeste 10 Oeste 0 -- -- 75
2020-05-14 12:00:00 14.5 4 Noroeste 9 Oeste 0 -- -- 80
2020-05-14 11:00:00 14 2 Nordeste 5 Sur 0 -- -- 82
2020-05-14 10:00:00 13.3 0 Calma 5 Este 0 -- -- 85
2020-05-14 09:00:00 12.7 0 Calma 3 Nordeste 0 -- -- 91
2020-05-14 08:00:00 12.5 0 Calma 4 Sudeste 0 -- -- 90
2020-05-14 07:00:00 12.3 2 Nordeste 4 Norte 0 -- -- 93
2020-05-14 06:00:00 12.3 2 Noroeste 8 Sudoeste 0 -- -- 91
2020-05-14 05:00:00 12.4 2 Sur 5 Norte 0 -- -- 90
2020-05-14 04:00:00 12.9 0 Calma 8 Este 0 -- -- 89
2020-05-14 03:00:00 13.3 4 Este 8 Sudeste 0 -- -- 87
2020-05-14 02:00:00 13.5 2 Noroeste 8 Sudeste 0 -- -- 92
2020-05-14 01:00:00 14 4 Este 8 Este 0 -- -- 91
2020-05-14 00:00:00 14.2 2 Noroeste 7 Este 1 -- -- 90
2020-05-13 23:00:00 15 3 Sudeste 21 Este 1.6 -- -- 83
2020-05-13 22:00:00 16.6 10 Este 21 Este 0 -- -- 71
2020-05-13 21:00:00 17.4 2 Noroeste 7 Oeste 0 -- -- 70
2020-05-13 20:00:00 18.1 5 Noroeste 16 Oeste 0 -- -- 65
2020-05-13 19:00:00 17.7 6 Oeste 13 Noroeste 0 -- -- 67
2020-05-13 18:00:00 18.4 8 Oeste 17 Noroeste 0 -- -- 63
2020-05-13 17:00:00 19.5 7 Oeste 19 Sudoeste 0 -- -- 60
2020-05-13 16:00:00 17.6 4 Norte 13 Noroeste 0 -- -- 63
2020-05-13 15:00:00 15.7 3 Noroeste 11 Oeste 0 -- -- 69
2020-05-13 14:00:00 14.2 4 Noroeste 13 Oeste 0 -- -- 80
2020-05-13 13:00:00 14.1 5 Oeste 15 Sudoeste 0 -- -- 81
2020-05-13 12:00:00 13.9 10 Oeste 18 Oeste 0 -- -- 82
2020-05-13 11:00:00 12.4 8 Oeste 17 Oeste 0 -- -- 91
2020-05-13 10:00:00 11.6 8 Oeste 17 Oeste 0 -- -- 96
2020-05-13 09:00:00 10.9 7 Oeste 16 Oeste 0.4 -- -- 97
2020-05-13 08:00:00 10.7 9 Oeste 15 Oeste 0.2 -- -- 96
2020-05-13 07:00:00 10.9 6 Oeste 16 Oeste 0.4 -- -- 97
2020-05-13 06:00:00 11 6 Oeste 18 Noroeste 0.2 -- -- 97
2020-05-13 05:00:00 11.2 9 Oeste 18 Oeste 0.2 -- -- 97
2020-05-13 04:00:00 11.2 6 Oeste 13 Oeste 0.4 -- -- 97
2020-05-13 03:00:00 11.4 5 Oeste 12 Noroeste 1.4 -- -- 97
2020-05-13 02:00:00 11.9 4 Oeste 9 Oeste 4.4 -- -- 96
2020-05-13 01:00:00 11.9 4 Oeste 8 Oeste 1 -- -- 96
2020-05-13 00:00:00 11.8 3 Oeste 7 Oeste 3.4 -- -- 95
2020-05-12 23:00:00 12 3 Oeste 8 Oeste 5.4 -- -- 95
2020-05-12 22:00:00 11.9 2 Noroeste 13 Noroeste 6.4 -- -- 93
2020-05-12 21:00:00 13.1 6 Oeste 16 Oeste 1.4 -- -- 90
2020-05-12 20:00:00 14 10 Sudoeste 23 Oeste 4 -- -- 84
2020-05-12 19:00:00 17.6 4 Norte 15 Este 0 -- -- 68
2020-05-12 18:00:00 18.1 6 Este 18 Sudeste 0 -- -- 58
2020-05-12 17:00:00 17.8 11 Este 22 Este 0 -- -- 62
2020-05-12 16:00:00 18.6 7 Este 15 Este 0 -- -- 58
2020-05-12 15:00:00 18.1 8 Nordeste 15 Nordeste 0 -- -- 60
2020-05-12 14:00:00 17.4 4 Norte 12 Este 0 -- -- 61
2020-05-12 13:00:00 17 4 Sudoeste 13 Sudoeste 0 -- -- 65
2020-05-12 12:00:00 15.5 7 Oeste 13 Norte 0 -- -- 67
2020-05-12 11:00:00 14.3 4 Oeste 8 Oeste 0 -- -- 70
2020-05-12 10:00:00 13 2 Oeste 8 Noroeste 0 -- -- 75
2020-05-12 09:00:00 12.5 4 Noroeste 12 Oeste 0 -- -- 77
2020-05-12 08:00:00 11.7 3 Noroeste 8 Oeste 0 -- -- 83
2020-05-12 07:00:00 11.5 4 Oeste 7 Oeste 0 -- -- 83
2020-05-12 06:00:00 12 6 Oeste 11 Noroeste 0 -- -- 81
2020-05-12 05:00:00 12.4 6 Noroeste 18 Oeste 0 -- -- 80
2020-05-12 04:00:00 12.4 6 Oeste 14 Oeste 0 -- -- 80
2020-05-12 03:00:00 12.8 6 Oeste 19 Sudoeste 0 -- -- 79
2020-05-12 02:00:00 13.3 9 Sudoeste 21 Oeste 0 -- -- 77
2020-05-12 01:00:00 14.1 8 Oeste 16 Oeste 0 -- -- 73
2020-05-12 00:00:00 14.4 8 Oeste 15 Oeste 0 -- -- 72
2020-05-11 23:00:00 14.6 8 Oeste 14 Sudoeste 0 -- -- 70
2020-05-11 22:00:00 15 4 Noroeste 16 Norte 0 -- -- 69
2020-05-11 21:00:00 16.3 5 Norte 17 Norte 0 -- -- 65
2020-05-11 20:00:00 18.7 11 Noroeste 19 Noroeste 0 -- -- 59
2020-05-11 19:00:00 19.3 12 Norte 30 Norte 0 -- -- 53
2020-05-11 18:00:00 20.6 17 Noroeste 30 Noroeste 0 -- -- 45
2020-05-11 17:00:00 20.7 19 Noroeste 32 Noroeste 0 -- -- 50
2020-05-11 16:00:00 21 17 Noroeste 44 Oeste 0 -- -- 48
2020-05-11 15:00:00 21.6 22 Noroeste 42 Oeste 0 -- -- 42
2020-05-11 14:00:00 20.7 21 Oeste 41 Oeste 0 -- -- 46
2020-05-11 13:00:00 19.3 25 Noroeste 41 Oeste 0 -- -- 54
2020-05-11 12:00:00 18 19 Noroeste 40 Oeste 0 -- -- 63
2020-05-11 11:00:00 16.7 21 Oeste 40 Oeste 0 -- -- 68
2020-05-11 10:00:00 15.7 19 Noroeste 34 Noroeste 0 -- -- 72
2020-05-11 09:00:00 14.2 6 Noroeste 24 Oeste 0 -- -- 81
2020-05-11 08:00:00 12.5 13 Oeste 22 Oeste 0 -- -- 82
2020-05-11 07:00:00 11.5 10 Sudoeste 22 Oeste 0 -- -- 85
2020-05-11 06:00:00 11.6 14 Oeste 26 Sudoeste 0 -- -- 82
2020-05-11 05:00:00 12.1 14 Oeste 22 Oeste 0 -- -- 81
2020-05-11 04:00:00 12.3 10 Oeste 24 Oeste 0 -- -- 81
2020-05-11 03:00:00 12.4 14 Oeste 22 Oeste 0 -- -- 81
2020-05-11 02:00:00 12.4 10 Oeste 17 Oeste 0 -- -- 84
2020-05-11 01:00:00 12.5 11 Oeste 24 Oeste 0 -- -- 85
2020-05-11 00:00:00 13.1 14 Oeste 26 Sudoeste 0 -- -- 81
2020-05-10 23:00:00 13.2 12 Oeste 20 Oeste 0 -- -- 86
2020-05-10 22:00:00 13.4 9 Oeste 21 Oeste 0 -- -- 89
2020-05-10 21:00:00 13.3 9 Oeste 22 Sudoeste 0 -- -- 89
2020-05-10 20:00:00 13.1 13 Oeste 32 Oeste 1.2 -- -- 91
2020-05-10 19:00:00 14 6 Noroeste 25 Oeste 0.2 -- -- 86
2020-05-10 18:00:00 13.8 13 Oeste 27 Noroeste 1.8 -- -- 90
2020-05-10 17:00:00 15.7 14 Noroeste 29 Noroeste 0 -- -- 71
2020-05-10 16:00:00 15.5 18 Noroeste 41 Noroeste 0 -- -- 72
2020-05-10 15:00:00 18.5 19 Oeste 38 Oeste 0 -- -- 53
2020-05-10 14:00:00 18.4 18 Oeste 33 Noroeste 0 -- -- 55
2020-05-10 13:00:00 17.7 23 Oeste 39 Oeste 0 -- -- 57
2020-05-10 12:00:00 17.5 21 Noroeste 36 Oeste 0 -- -- 61
2020-05-10 11:00:00 15.6 21 Noroeste 37 Oeste 0.2 -- -- 64
2020-05-10 10:00:00 15.5 14 Oeste 32 Oeste 0 -- -- 70
2020-05-10 09:00:00 14.5 14 Oeste 26 Noroeste 0 -- -- 75
2020-05-10 08:00:00 12.5 3 Noroeste 22 Oeste 0 -- -- 91
2020-05-10 07:00:00 12.5 15 Oeste 31 Oeste 0.2 -- -- 87
2020-05-10 06:00:00 14.2 11 Oeste 20 Oeste 2 -- -- 93
2020-05-10 05:00:00 14.4 5 Oeste 9 Noroeste 0 -- -- 93
2020-05-10 04:00:00 14.5 4 Sudoeste 8 Sudoeste 0 -- -- 89
2020-05-10 03:00:00 14.7 0 Calma 5 Nordeste 0 -- -- 88
2020-05-10 02:00:00 15.5 0 Calma 6 Este 0 -- -- 84
2020-05-10 01:00:00 15.4 3 Este 5 Este 0 -- -- 84
2020-05-10 00:00:00 15.6 4 Noroeste 12 Oeste 0 -- -- 84
2020-05-09 23:00:00 16.8 4 Oeste 8 Oeste 0 -- -- 79
2020-05-09 22:00:00 17.9 3 Sudoeste 27 Oeste 0 -- -- 67
2020-05-09 21:00:00 18.6 22 Noroeste 41 Noroeste 0 -- -- 70
2020-05-09 20:00:00 21.8 17 Oeste 33 Oeste 0 -- -- 55
2020-05-09 19:00:00 23.1 21 Oeste 33 Oeste 0 -- -- 56
2020-05-09 18:00:00 27.5 10 Sudoeste 39 Sudoeste 0 -- -- 29
2020-05-09 17:00:00 24.8 21 Este 38 Sudeste 0 -- -- 51
2020-05-09 16:00:00 23.5 19 Este 36 Este 0 -- -- 52
2020-05-09 15:00:00 23 19 Este 36 Este 0 -- -- 54
2020-05-09 14:00:00 21.6 19 Este 36 Este 0 -- -- 54
2020-05-09 13:00:00 20.9 17 Este 33 Este 0 -- -- 60
2020-05-09 12:00:00 19.8 14 Este 32 Sudeste 0 -- -- 61
2020-05-09 11:00:00 17.5 13 Este 36 Este 0 -- -- 70
2020-05-09 10:00:00 16.3 20 Este 46 Nordeste 0 -- -- 68
2020-05-09 09:00:00 15.8 21 Este 37 Este 0 -- -- 70
2020-05-09 08:00:00 13.6 16 Este 29 Este 0 -- -- 78
2020-05-09 07:00:00 13.4 17 Este 29 Este 0 -- -- 81
2020-05-09 06:00:00 13.7 14 Este 40 Este 0 -- -- 84
2020-05-09 05:00:00 14.3 15 Este 38 Sudeste 0.2 -- -- 82
2020-05-09 04:00:00 14.9 14 Este 36 Este 0.2 -- -- 79
2020-05-09 03:00:00 16.2 17 Este 38 Este 0 -- -- 67
2020-05-09 02:00:00 15.3 4 Este 10 Este 0 -- -- 84
2020-05-09 01:00:00 15.9 4 Oeste 12 Sudoeste 0 -- -- 86
2020-05-09 00:00:00 17.4 8 Sudoeste 33 Oeste 2.2 -- -- 78
2020-05-08 23:00:00 17.6 12 Sudoeste 37 Sudoeste 0.8 -- -- 79
2020-05-08 22:00:00 21.1 4 Noroeste 24 Este 0 -- -- 62
2020-05-08 21:00:00 22.6 9 Este 27 Este 0 -- -- 44
2020-05-08 20:00:00 23.6 12 Este 37 Sudeste 0 -- -- 42
2020-05-08 19:00:00 23.6 13 Este 32 Este 0.2 -- -- 44
2020-05-08 18:00:00 25.7 14 Este 32 Este 0 -- -- 39
2020-05-08 17:00:00 24.8 15 Este 36 Este 0 -- -- 42
2020-05-08 16:00:00 26.3 17 Este 35 Este 0 -- -- 43
2020-05-08 15:00:00 24.5 16 Este 31 Este 0 -- -- 50
2020-05-08 14:00:00 21.8 15 Este 28 Este 0 -- -- 56
2020-05-08 13:00:00 19.9 9 Este 18 Este 0 -- -- 62
2020-05-08 12:00:00 17.4 4 Sudeste 18 Sudeste 0 -- -- 70
2020-05-08 11:00:00 16.6 6 Nordeste 22 Sudeste 0 -- -- 72
2020-05-08 10:00:00 16.3 15 Este 27 Este 0 -- -- 68
2020-05-08 09:00:00 15.9 0 Calma 15 Este 0 -- -- 68
2020-05-08 08:00:00 15.3 3 Este 30 Este 0 -- -- 70
2020-05-08 07:00:00 15.5 21 Este 40 Este 0 -- -- 68
2020-05-08 06:00:00 16 18 Este 35 Este 0 -- -- 66
2020-05-08 05:00:00 16.7 15 Este 41 Sudeste 0 -- -- 65
2020-05-08 04:00:00 17.7 22 Este 41 Este 0 -- -- 64
2020-05-08 03:00:00 19 21 Este 44 Este 0 -- -- 63
2020-05-08 02:00:00 19.9 18 Este 38 Este 0 -- -- 57
2020-05-08 01:00:00 20.6 21 Este 37 Sudeste 0 -- -- 55
2020-05-08 00:00:00 21.1 14 Este 28 Este 0 -- -- 56
2020-05-07 23:00:00 21.9 11 Este 26 Este 0 -- -- 57
2020-05-07 22:00:00 22.8 13 Este 25 Este 0 -- -- 55
2020-05-07 21:00:00 24.1 12 Este 39 Este 0 -- -- 47
2020-05-07 20:00:00 24.7 21 Este 36 Este 0 -- -- 44
2020-05-07 19:00:00 24.8 19 Este 43 Este 0 -- -- 46
2020-05-07 18:00:00 25.2 21 Este 45 Este 0 -- -- 45
2020-05-07 17:00:00 25.9 23 Este 37 Este 0 -- -- 43
2020-05-07 16:00:00 25.6 22 Este 43 Este 0 -- -- 45
2020-05-07 15:00:00 24.4 23 Este 41 Este 0 -- -- 47
2020-05-07 14:00:00 24.2 22 Este 42 Este 0 -- -- 48
2020-05-07 13:00:00 23 22 Este 42 Sudeste 0 -- -- 54
2020-05-07 12:00:00 21.1 18 Este 33 Este 0 -- -- 59
2020-05-07 11:00:00 19.8 18 Este 30 Este 0 -- -- 62
2020-05-07 10:00:00 18.2 10 Este 19 Este 0 -- -- 67
2020-05-07 09:00:00 15.2 3 Nordeste 5 Este 0 -- -- 80
2020-05-07 08:00:00 12.6 0 Calma 3 Oeste 0 -- -- 91
2020-05-07 07:00:00 12.3 2 Noroeste 6 Oeste 0 -- -- 89
2020-05-07 06:00:00 12.7 0 Calma 5 Sudoeste 0 -- -- 86
2020-05-07 05:00:00 13.6 2 Oeste 3 Oeste 0 -- -- 83
2020-05-07 04:00:00 14.2 0 Calma 7 Noroeste 0 -- -- 81
2020-05-07 03:00:00 15.2 3 Oeste 4 Oeste 0 -- -- 76
2020-05-07 02:00:00 16.5 0 Calma 11 Sudoeste 0 -- -- 70
2020-05-07 01:00:00 17.6 3 Sur 8 Oeste 0 -- -- 66
2020-05-07 00:00:00 19.1 4 Oeste 10 Este 0 -- -- 64
2020-05-06 23:00:00 20.7 3 Sudeste 9 Sudeste 0 -- -- 58
2020-05-06 22:00:00 21.9 0 Calma 10 Norte 0 -- -- 53
2020-05-06 21:00:00 23.2 7 Norte 19 Norte 0 -- -- 49
2020-05-06 20:00:00 26.4 7 Oeste 13 Noroeste 0 -- -- 31
2020-05-06 19:00:00 26.5 3 Norte 12 Norte 0 -- -- 27
2020-05-06 18:00:00 27 6 Sudeste 18 Este 0 -- -- 25
2020-05-06 17:00:00 27.2 7 Norte 13 Nordeste 0 -- -- 24
2020-05-06 16:00:00 26.6 6 Este 17 Este 0 -- -- 24
2020-05-06 15:00:00 26.1 5 Este 14 Este 0 -- -- 25
2020-05-06 14:00:00 24.8 6 Norte 15 Nordeste 0 -- -- 29
2020-05-06 13:00:00 23.5 6 Noroeste 15 Oeste 0 -- -- 33
2020-05-06 12:00:00 22.1 7 Oeste 14 Oeste 0 -- -- 44
2020-05-06 11:00:00 19.5 6 Oeste 12 Sudoeste 0 -- -- 49
2020-05-06 10:00:00 16.4 6 Noroeste 13 Noroeste 0 -- -- 59
2020-05-06 09:00:00 13.6 7 Noroeste 11 Noroeste 0 -- -- 70
2020-05-06 08:00:00 10.4 0 Calma 5 Sudoeste 0 -- -- 85
2020-05-06 07:00:00 10.1 2 Oeste 5 Oeste 0 -- -- 82
2020-05-06 06:00:00 10.8 3 Oeste 10 Oeste 0 -- -- 80
2020-05-06 05:00:00 11.6 7 Oeste 12 Oeste 0 -- -- 75
2020-05-06 04:00:00 12.6 7 Oeste 10 Oeste 0 -- -- 69
2020-05-06 03:00:00 13.6 4 Oeste 12 Oeste 0 -- -- 67
2020-05-06 02:00:00 14.8 6 Oeste 12 Oeste 0 -- -- 61
2020-05-06 01:00:00 15 3 Noroeste 9 Oeste 0 -- -- 58
2020-05-06 00:00:00 16.2 3 Norte 9 Oeste 0 -- -- 54
2020-05-05 23:00:00 17.7 2 Noroeste 7 Sudoeste 0 -- -- 48
2020-05-05 22:00:00 19.5 4 Noroeste 10 Oeste 0 -- -- 41
2020-05-05 21:00:00 21.4 6 Noroeste 22 Noroeste 0 -- -- 36
2020-05-05 20:00:00 22.8 15 Noroeste 31 Noroeste 0 -- -- 30
2020-05-05 19:00:00 24.1 12 Noroeste 25 Noroeste 0 -- -- 28
2020-05-05 18:00:00 25.3 13 Noroeste 25 Oeste 0 -- -- 28
2020-05-05 17:00:00 24.8 8 Noroeste 21 Norte 0 -- -- 32
2020-05-05 16:00:00 24.9 9 Noroeste 20 Oeste 0 -- -- 33
2020-05-05 15:00:00 23.2 11 Noroeste 21 Oeste 0 -- -- 37
2020-05-05 14:00:00 22.1 14 Noroeste 27 Noroeste 0 -- -- 40
2020-05-05 13:00:00 21.5 12 Noroeste 22 Noroeste 0 -- -- 46
2020-05-05 12:00:00 19.4 12 Noroeste 27 Oeste 0 -- -- 57
2020-05-05 11:00:00 18.7 12 Noroeste 27 Oeste 0 -- -- 58
2020-05-05 10:00:00 17.5 13 Oeste 29 Oeste 0 -- -- 62
2020-05-05 09:00:00 16.6 10 Oeste 20 Oeste 0 -- -- 65
2020-05-05 08:00:00 15.3 10 Oeste 18 Oeste 0 -- -- 67
2020-05-05 07:00:00 14.9 2 Oeste 16 Sudoeste 0 -- -- 70
2020-05-05 06:00:00 15.6 7 Sudoeste 17 Sudoeste 0 -- -- 66
2020-05-05 05:00:00 16.1 10 Oeste 19 Oeste 0 -- -- 62
2020-05-05 04:00:00 16.6 8 Oeste 19 Noroeste 0 -- -- 61
2020-05-05 03:00:00 17.4 10 Oeste 16 Oeste 0 -- -- 57
2020-05-05 02:00:00 17.8 0 Calma 15 Oeste 0 -- -- 60
2020-05-05 01:00:00 19.1 10 Oeste 19 Oeste 0 -- -- 53
2020-05-05 00:00:00 19.4 11 Oeste 25 Oeste 0 -- -- 56
2020-05-04 23:00:00 20.5 15 Oeste 30 Oeste 0 -- -- 58
2020-05-04 22:00:00 21.6 15 Noroeste 36 Noroeste 0.4 -- -- 57
2020-05-04 21:00:00 23.3 14 Norte 30 Noroeste 0.6 -- -- 67
2020-05-04 20:00:00 27 16 Este 38 Sudeste 0 -- -- 51
2020-05-04 19:00:00 30 9 Sudeste 35 Este 0 -- -- 32
2020-05-04 18:00:00 27.3 22 Este 49 Este 0 -- -- 48
2020-05-04 17:00:00 27 24 Este 45 Este 0 -- -- 45
2020-05-04 16:00:00 26.4 18 Este 39 Este 0 -- -- 49
2020-05-04 15:00:00 24.2 19 Este 40 Este 0 -- -- 53
2020-05-04 14:00:00 23.9 23 Este 47 Este 0 -- -- 54
2020-05-04 13:00:00 23.4 25 Este 46 Este 0 -- -- 57
2020-05-04 12:00:00 22.1 23 Este 43 Sudeste 0 -- -- 61
2020-05-04 11:00:00 20.3 20 Este 38 Este 0 -- -- 68
2020-05-04 10:00:00 19.1 17 Este 32 Este 0 -- -- 70
2020-05-04 09:00:00 17.2 14 Este 27 Este 0 -- -- 78
2020-05-04 08:00:00 15.7 13 Este 26 Este 0 -- -- 81
2020-05-04 07:00:00 15.3 5 Sudeste 13 Este 0 -- -- 83
2020-05-04 06:00:00 14.9 5 Este 12 Este 0 -- -- 86
2020-05-04 05:00:00 14.5 4 Nordeste 11 Nordeste 0 -- -- 88
2020-05-04 04:00:00 14.9 0 Calma 3 Este 0 -- -- 86
2020-05-04 03:00:00 16.1 2 Sudoeste 6 Oeste 0 -- -- 81
2020-05-04 02:00:00 16.9 2 Sudoeste 8 Sudoeste 0 -- -- 80
2020-05-04 01:00:00 18.1 0 Calma 4 Sudeste 0 -- -- 74
2020-05-04 00:00:00 19.5 0 Calma 4 Sudeste 0 -- -- 69
2020-05-03 23:00:00 20.4 3 Nordeste 15 Este 0 -- -- 66
2020-05-03 22:00:00 22.1 2 Este 10 Este 0 -- -- 59
2020-05-03 21:00:00 23.9 4 Este 22 Este 0 -- -- 54
2020-05-03 20:00:00 25.4 12 Este 22 Este 0 -- -- 48
2020-05-03 19:00:00 26.2 11 Este 24 Este 0 -- -- 45
2020-05-03 18:00:00 26.3 14 Este 25 Este 0 -- -- 43
2020-05-03 17:00:00 26.6 12 Este 28 Este 0 -- -- 43
2020-05-03 16:00:00 26 13 Este 24 Este 0 -- -- 42
2020-05-03 15:00:00 25.3 12 Este 24 Sudeste 0 -- -- 44
2020-05-03 14:00:00 24.4 10 Nordeste 24 Nordeste 0 -- -- 44
2020-05-03 13:00:00 22.9 11 Este 20 Nordeste 0 -- -- 48
2020-05-03 12:00:00 21.2 8 Este 16 Este 0 -- -- 54
2020-05-03 11:00:00 17.9 4 Norte 8 Nordeste 0 -- -- 68
2020-05-03 10:00:00 15.3 3 Noroeste 5 Norte 0 -- -- 79
2020-05-03 09:00:00 12.9 3 Noroeste 6 Noroeste 0 -- -- 87
2020-05-03 08:00:00 11.1 3 Noroeste 6 Noroeste 0 -- -- 94
2020-05-03 07:00:00 11.4 2 Oeste 4 Oeste 0 -- -- 91
2020-05-03 06:00:00 12.4 2 Oeste 5 Sudoeste 0 -- -- 89
2020-05-03 05:00:00 13.3 2 Sudoeste 4 Sudoeste 0 -- -- 88
2020-05-03 04:00:00 13.9 2 Oeste 4 Oeste 0 -- -- 88
2020-05-03 03:00:00 14.1 0 Calma 3 Oeste 0 -- -- 88
2020-05-03 02:00:00 15 0 Calma 4 Sur 0 -- -- 82
2020-05-03 01:00:00 15.6 2 Este 5 Este 0 -- -- 79
2020-05-03 00:00:00 17 0 Calma 11 Sur 0 -- -- 75
2020-05-02 23:00:00 17.4 4 Sur 10 Sudoeste 0 -- -- 73
2020-05-02 22:00:00 18.7 3 Este 8 Noroeste 0 -- -- 65
2020-05-02 21:00:00 19.7 5 Norte 23 Nordeste 0 -- -- 66
2020-05-02 20:00:00 22.3 10 Norte 33 Oeste 0 -- -- 56
2020-05-02 19:00:00 23.2 17 Noroeste 40 Noroeste 0 -- -- 47
2020-05-02 18:00:00 23.7 24 Noroeste 48 Oeste 0 -- -- 46
2020-05-02 17:00:00 23.3 27 Noroeste 52 Noroeste 0 -- -- 47
2020-05-02 16:00:00 23.3 23 Noroeste 46 Oeste 0 -- -- 46
2020-05-02 15:00:00 22.7 19 Noroeste 39 Noroeste 0 -- -- 50
2020-05-02 14:00:00 21.6 20 Noroeste 39 Noroeste 0 -- -- 54
2020-05-02 13:00:00 20.5 21 Noroeste 35 Oeste 0 -- -- 58
2020-05-02 12:00:00 19.5 17 Noroeste 37 Noroeste 0 -- -- 60
2020-05-02 11:00:00 18.7 18 Noroeste 38 Noroeste 0 -- -- 63
2020-05-02 10:00:00 17.9 19 Noroeste 37 Noroeste 0 -- -- 66
2020-05-02 09:00:00 16.8 16 Noroeste 32 Noroeste 0 -- -- 72
2020-05-02 08:00:00 15.2 13 Noroeste 26 Oeste 0 -- -- 80
2020-05-02 07:00:00 14.2 12 Oeste 22 Oeste 0 -- -- 83
2020-05-02 06:00:00 14.3 11 Noroeste 17 Oeste 0 -- -- 84
2020-05-02 05:00:00 14.9 9 Oeste 19 Oeste 0 -- -- 81
2020-05-02 04:00:00 15.4 8 Noroeste 18 Noroeste 0 -- -- 79
2020-05-02 03:00:00 16 8 Noroeste 18 Oeste 0 -- -- 77
2020-05-02 02:00:00 16.3 8 Oeste 15 Oeste 0 -- -- 76
2020-05-02 01:00:00 16.9 8 Oeste 13 Oeste 0 -- -- 75
2020-05-02 00:00:00 16.9 0 Calma 11 Oeste 0 -- -- 79
2020-05-01 23:00:00 18 6 Sudoeste 21 Oeste 0 -- -- 74
2020-05-01 22:00:00 19 10 Oeste 26 Noroeste 0 -- -- 68
2020-05-01 21:00:00 21.4 19 Noroeste 47 Oeste 0 -- -- 59
2020-05-01 20:00:00 23.4 23 Oeste 54 Oeste 0 -- -- 49
2020-05-01 19:00:00 24.4 28 Oeste 53 Oeste 0 -- -- 45
2020-05-01 18:00:00 24.9 28 Oeste 59 Oeste 0 -- -- 45
2020-05-01 17:00:00 24.8 35 Oeste 64 Noroeste 0 -- -- 45
2020-05-01 16:00:00 23.3 26 Oeste 65 Oeste 0 -- -- 49
2020-05-01 15:00:00 22.2 28 Oeste 51 Oeste 0 -- -- 52
2020-05-01 14:00:00 22.6 30 Oeste 59 Oeste 0 -- -- 51
2020-05-01 13:00:00 21.7 25 Oeste 47 Noroeste 0 -- -- 53
2020-05-01 12:00:00 19.3 20 Noroeste 44 Noroeste 0 -- -- 63
2020-05-01 11:00:00 19.5 18 Noroeste 33 Noroeste 0.2 -- -- 65
2020-05-01 10:00:00 17.3 14 Noroeste 29 Norte 0 -- -- 70
2020-05-01 09:00:00 15.6 11 Noroeste 25 Noroeste 0 -- -- 75
2020-05-01 08:00:00 14.1 4 Sudoeste 17 Noroeste 0 -- -- 84
2020-05-01 07:00:00 14 5 Noroeste 21 Sudoeste 1.4 -- -- 82
2020-05-01 06:00:00 15.3 5 Sudoeste 29 Noroeste 0 -- -- 71
2020-05-01 05:00:00 15.1 12 Noroeste 27 Noroeste 0 -- -- 70
2020-05-01 04:00:00 15.2 13 Noroeste 24 Oeste 0 -- -- 68
2020-05-01 03:00:00 15.2 12 Noroeste 30 Noroeste 0 -- -- 67
2020-05-01 02:00:00 15.2 17 Oeste 29 Oeste 0 -- -- 66
2020-05-01 01:00:00 15.5 13 Oeste 23 Noroeste 0 -- -- 63
2020-05-01 00:00:00 15.9 9 Oeste 20 Oeste 0 -- -- 60
2020-04-30 23:00:00 16 9 Noroeste 23 Noroeste 0 -- -- 59
2020-04-30 22:00:00 16.4 10 Noroeste 23 Noroeste 0 -- -- 58
2020-04-30 21:00:00 17.2 10 Noroeste 33 Oeste 0 -- -- 56
2020-04-30 20:00:00 18.6 16 Oeste 37 Oeste 0 -- -- 49
2020-04-30 19:00:00 18.3 22 Oeste 45 Oeste 0 -- -- 50
2020-04-30 18:00:00 18.3 27 Oeste 45 Oeste 0 -- -- 47
2020-04-30 17:00:00 19.8 26 Oeste 51 Oeste 0 -- -- 43
2020-04-30 16:00:00 19.9 25 Oeste 54 Noroeste 0 -- -- 42
2020-04-30 15:00:00 20.3 30 Oeste 57 Oeste 0 -- -- 39
2020-04-30 14:00:00 18.4 26 Oeste 44 Oeste 0 -- -- 45
2020-04-30 13:00:00 16.8 27 Oeste 53 Oeste 0 -- -- 49
2020-04-30 12:00:00 15.8 28 Oeste 55 Oeste 0 -- -- 51
2020-04-30 11:00:00 15.8 32 Oeste 61 Oeste 0 -- -- 50
2020-04-30 10:00:00 14.3 17 Noroeste 31 Oeste 0 -- -- 62
2020-04-30 09:00:00 13.6 5 Noroeste 9 Noroeste 0 -- -- 61
2020-04-30 08:00:00 12.1 7 Oeste 24 Noroeste 0 -- -- 67
2020-04-30 07:00:00 11.9 12 Oeste 23 Oeste 0 -- -- 65
2020-04-30 06:00:00 11.9 10 Oeste 26 Oeste 0 -- -- 65
2020-04-30 05:00:00 12.2 12 Oeste 27 Oeste 0 -- -- 61
2020-04-30 04:00:00 13.2 15 Oeste 32 Oeste 0 -- -- 55
2020-04-30 03:00:00 13.3 19 Oeste 42 Noroeste 0 -- -- 60
2020-04-30 02:00:00 13.5 15 Noroeste 29 Noroeste 0 -- -- 65
2020-04-30 01:00:00 13.9 12 Noroeste 28 Noroeste 0 -- -- 63
2020-04-30 00:00:00 15.1 19 Oeste 34 Oeste 0 -- -- 57
2020-04-29 23:00:00 15.8 16 Oeste 27 Oeste 0 -- -- 52
2020-04-29 22:00:00 16.3 15 Oeste 37 Oeste 0 -- -- 53
2020-04-29 21:00:00 17.4 20 Oeste 45 Oeste 0 -- -- 47
2020-04-29 20:00:00 18.1 19 Oeste 37 Sudoeste 0 -- -- 49
2020-04-29 19:00:00 18.8 12 Oeste 30 Oeste 0 -- -- 50
2020-04-29 18:00:00 19.8 19 Oeste 36 Sudoeste 0 -- -- 47
2020-04-29 17:00:00 19.4 8 Noroeste 30 Sudoeste 0 -- -- 44
2020-04-29 16:00:00 21.4 10 Sudoeste 24 Oeste 0 -- -- 38
2020-04-29 15:00:00 20 3 Noroeste 14 Oeste 0 -- -- 44
2020-04-29 14:00:00 20.2 7 Sudoeste 20 Noroeste 0 -- -- 41
2020-04-29 13:00:00 18.7 4 Sudeste 14 Este 0 -- -- 47
2020-04-29 12:00:00 17.1 5 Noroeste 15 Oeste 0 -- -- 51
2020-04-29 11:00:00 14.9 8 Noroeste 15 Noroeste 0 -- -- 61
2020-04-29 10:00:00 13.3 10 Noroeste 18 Noroeste 0 -- -- 67
2020-04-29 09:00:00 11.3 0 Calma 10 Sudeste 0 -- -- 74
2020-04-29 08:00:00 8.6 4 Sudeste 6 Sudoeste 0 -- -- 80
2020-04-29 07:00:00 8.9 3 Nordeste 13 Oeste 0 -- -- 76
2020-04-29 06:00:00 8.8 4 Norte 17 Oeste 0 -- -- 78
2020-04-29 05:00:00 9.2 4 Oeste 9 Oeste 0 -- -- 80
2020-04-29 04:00:00 9.8 0 Calma 5 Sudoeste 0 -- -- 86
2020-04-29 03:00:00 10.6 2 Oeste 8 Oeste 0 -- -- 83
2020-04-29 02:00:00 11.2 0 Calma 5 Oeste 0 -- -- 82
2020-04-29 01:00:00 11.5 0 Calma 10 Sudoeste 0 -- -- 79
2020-04-29 00:00:00 12.7 5 Sudoeste 14 Oeste 0 -- -- 71
2020-04-28 23:00:00 12.8 5 Oeste 13 Oeste 0 -- -- 70
2020-04-28 22:00:00 13.6 9 Oeste 15 Oeste 0 -- -- 68
2020-04-28 21:00:00 15.7 11 Oeste 35 Oeste 0 -- -- 53
2020-04-28 20:00:00 16.9 16 Oeste 33 Oeste 0 -- -- 46
2020-04-28 19:00:00 17.9 19 Oeste 41 Oeste 0 -- -- 43
2020-04-28 18:00:00 18.1 25 Oeste 46 Oeste 0 -- -- 43
2020-04-28 17:00:00 18.1 21 Noroeste 41 Oeste 0 -- -- 44
2020-04-28 16:00:00 18.6 23 Oeste 44 Oeste 0 -- -- 40
2020-04-28 15:00:00 17.9 20 Noroeste 42 Sudoeste 0 -- -- 41
2020-04-28 14:00:00 15.9 24 Oeste 45 Oeste 0 -- -- 48
2020-04-28 13:00:00 17.2 23 Oeste 39 Noroeste 0 -- -- 45
2020-04-28 12:00:00 15.5 20 Noroeste 36 Oeste 0 -- -- 51
2020-04-28 11:00:00 14.1 3 Norte 15 Noroeste 0 -- -- 66
2020-04-28 10:00:00 11.8 6 Oeste 13 Norte 0 -- -- 80
2020-04-28 09:00:00 8.8 0 Calma 4 Noroeste 0 -- -- 96
2020-04-28 08:00:00 8.3 2 Oeste 4 Oeste 0 -- -- 96
2020-04-28 07:00:00 8 0 Calma 8 Oeste 0 -- -- 96
2020-04-28 06:00:00 7.9 0 Calma 4 Nordeste 0 -- -- 95
2020-04-28 05:00:00 8.4 2 Oeste 5 Sudoeste 0 -- -- 93
2020-04-28 04:00:00 8.9 0 Calma 5 Noroeste 0 -- -- 92
2020-04-28 03:00:00 9.8 0 Calma 6 Sur 0 -- -- 86
2020-04-28 02:00:00 10.4 3 Sudoeste 8 Oeste 0 -- -- 85
2020-04-28 01:00:00 10.8 4 Oeste 10 Oeste 0 -- -- 84
2020-04-28 00:00:00 11.3 8 Sudoeste 16 Oeste 0 -- -- 80